Time;durP1;ratioP1;P1;durP2;ratioP2;P2;SDS_P1;SDS_P2;PMS_P1;PMS_P2;Temp;Humidity;BMP_temperature;BMP_pressure;BME280_temperature;BME280_humidity;BME280_pressure;Samples;Min_cycle;Max_cycle;Signal;HPM_P1;HPM_P2
2023/06/15 04:46:42;;;;;;;;;;;;;;;;;;;;;
2023/06/15 08:50:18;;;;;;;3.50;2.22;;;;;;;;;;6290848;22;19941;-94
2023/06/15 08:53:05;;;;;;;2.72;1.75;;;;;;;;;;6279012;22;20047;-94
2023/06/15 08:55:37;;;;;;;4.03;2.10;;;;;;;;;;6287219;22;20008;-95
2023/06/15 08:58:28;;;;;;;5.57;2.33;;;;;;;;;;6287742;22;20018;-94
2023/06/15 09:01:13;;;;;;;6.57;2.75;;;;;;;;;;6133667;23;20008;-95
2023/06/15 09:03:55;;;;;;;3.05;2.15;;;;;;;;;;6279125;22;19992;-95
2023/06/15 09:17:19;;;;;;;4.53;2.40;;;;;;;;;;6286339;22;20027;-94
2023/06/15 09:19:51;;;;;;;4.72;2.10;;;;;;;;;;6279725;22;19992;-94
2023/06/15 09:22:45;;;;;;;4.35;2.05;;;;;;;;;;6288446;22;20323;-95
2023/06/15 09:25:46;;;;;;;;;;;;;;;;;;;;;
2023/06/15 09:28:11;;;;;;;3.05;2.05;;;;;;;;;;6267115;22;20043;-94
2023/06/15 09:30:59;;;;;;;5.05;2.30;;;;;;;;;;6281313;22;19999;-94
2023/06/15 09:33:32;;;;;;;6.35;2.42;;;;;;;;;;6270512;22;20004;-94
2023/06/15 09:36:02;;;;;;;3.90;2.00;;;;;;;;;;6284547;22;20069;-94
2023/06/15 09:38:56;;;;;;;3.85;2.00;;;;;;;;;;6276516;22;20012;-94
2023/06/15 09:41:34;;;;;;;3.38;2.13;;;;;;;;;;6283471;22;19995;-95
2023/06/15 09:44:25;;;;;;;4.75;2.05;;;;;;;;;;6287288;22;20057;-94
2023/06/15 09:47:00;;;;;;;2.47;1.65;;;;;;;;;;6280190;22;19999;-94
2023/06/15 09:49:26;;;;;;;7.28;2.25;;;;;;;;;;6288292;22;20020;-95
2023/06/15 09:52:15;;;;;;;7.68;2.22;;;;;;;;;;6288026;22;20000;-94
2023/06/15 09:54:54;;;;;;;4.75;2.10;;;;;;;;;;6293672;22;20002;-94
2023/06/15 09:57:19;;;;;;;4.43;2.30;;;;;;;;;;6275266;22;20015;-94
2023/06/15 09:59:53;;;;;;;7.47;2.17;;;;;;;;;;6295684;22;20007;-94
2023/06/15 10:02:32;;;;;;;6.30;2.70;;;;;;;;;;6293093;22;20056;-94
2023/06/15 10:05:22;;;;;;;4.60;1.73;;;;;;;;;;6296348;22;20011;-94
2023/06/15 10:08:21;;;;;;;;;;;;;;;;;;;;;
2023/06/15 10:11:14;;;;;;;5.40;2.25;;;;;;;;;;6298218;22;20006;-95
2023/06/15 10:13:47;;;;;;;3.47;2.03;;;;;;;;;;6286678;22;20023;-95
2023/06/15 10:16:33;;;;;;;8.93;2.65;;;;;;;;;;6289931;22;20042;-95
2023/06/15 10:19:10;;;;;;;4.15;2.47;;;;;;;;;;6292097;22;20024;-96
2023/06/15 10:21:47;;;;;;;5.95;2.67;;;;;;;;;;6280081;22;20321;-93
2023/06/15 10:24:16;;;;;;;4.55;2.38;;;;;;;;;;6292434;22;20091;-95
2023/06/15 10:26:47;;;;;;;4.00;2.08;;;;;;;;;;6284468;22;20019;-95
2023/06/15 10:29:21;;;;;;;3.60;1.80;;;;;;;;;;6292269;22;19999;-94
2023/06/15 10:32:11;;;;;;;4.20;2.20;;;;;;;;;;6286221;22;19995;-93
2023/06/15 10:34:58;;;;;;;4.82;2.10;;;;;;;;;;6292845;22;20035;-93
2023/06/15 10:37:35;;;;;;;3.47;1.98;;;;;;;;;;6294402;22;20011;-95
2023/06/15 10:40:10;;;;;;;7.25;2.30;;;;;;;;;;6293751;22;19996;-96
2023/06/15 10:42:55;;;;;;;6.38;2.17;;;;;;;;;;6294338;22;20007;-93
2023/06/15 10:45:52;;;;;;;3.20;1.80;;;;;;;;;;6292823;22;19995;-93
2023/06/15 10:48:47;;;;;;;7.18;2.20;;;;;;;;;;6290700;22;20015;-93
2023/06/15 10:51:15;;;;;;;6.47;2.20;;;;;;;;;;6288078;22;20023;-94
2023/06/15 10:54:07;;;;;;;3.58;2.20;;;;;;;;;;6292251;22;20118;-94
2023/06/15 10:56:36;;;;;;;4.03;1.90;;;;;;;;;;6293173;22;20034;-94
2023/06/15 10:59:41;;;;;;;4.20;1.65;;;;;;;;;;6292270;22;20000;-94
2023/06/15 11:02:28;;;;;;;4.43;1.90;;;;;;;;;;6290539;22;20010;-94
2023/06/15 11:05:14;;;;;;;4.82;1.95;;;;;;;;;;6287564;22;19999;-94
2023/06/15 11:07:54;;;;;;;3.58;2.13;;;;;;;;;;6298912;22;20006;-94
2023/06/15 11:10:41;;;;;;;5.47;2.60;;;;;;;;;;6299743;22;20025;-94
2023/06/15 11:13:08;;;;;;;4.95;2.38;;;;;;;;;;6295930;22;19996;-93
2023/06/15 11:15:38;;;;;;;3.92;2.20;;;;;;;;;;6297042;22;20037;-94
2023/06/15 11:18:12;;;;;;;4.97;1.80;;;;;;;;;;6273357;22;20669;-95
2023/06/15 11:20:59;;;;;;;4.93;1.80;;;;;;;;;;6291290;22;20007;-94
2023/06/15 11:23:29;;;;;;;4.57;2.55;;;;;;;;;;6257027;22;20003;-94
2023/06/15 11:26:01;;;;;;;7.50;2.08;;;;;;;;;;6296854;22;20032;-94
2023/06/15 11:28:41;;;;;;;5.72;2.50;;;;;;;;;;6291529;22;20055;-93
2023/06/15 11:31:16;;;;;;;6.38;2.22;;;;;;;;;;6294031;22;21105;-94
2023/06/15 11:34:07;;;;;;;5.35;1.88;;;;;;;;;;6297366;22;20010;-94
2023/06/15 11:36:33;;;;;;;5.65;1.83;;;;;;;;;;6290927;22;20079;-94
2023/06/15 11:39:07;;;;;;;5.43;2.40;;;;;;;;;;6293025;22;20000;-94
2023/06/15 11:41:32;;;;;;;;;;;;;;;;;;6265626;22;20007;-94
2023/06/15 11:44:01;;;;;;;4.70;2.58;;;;;;;;;;6292185;22;19907;-94
2023/06/15 11:46:28;;;;;;;4.47;2.28;;;;;;;;;;6291535;22;20038;-94
2023/06/15 11:49:14;;;;;;;3.85;2.30;;;;;;;;;;6293997;22;20017;-94
2023/06/15 11:51:47;;;;;;;6.72;2.47;;;;;;;;;;6296573;22;20018;-93
2023/06/15 11:54:19;;;;;;;3.50;2.08;;;;;;;;;;6285053;22;20012;-94
2023/06/15 11:56:57;;;;;;;3.65;2.20;;;;;;;;;;6289955;22;19999;-94
2023/06/15 11:59:23;;;;;;;6.07;2.25;;;;;;;;;;6264687;22;20000;-93
2023/06/15 12:01:51;;;;;;;4.28;2.13;;;;;;;;;;6292966;22;20110;-94
2023/06/15 12:04:27;;;;;;;5.72;2.58;;;;;;;;;;6264007;22;20038;-94
2023/06/15 12:07:16;;;;;;;5.30;2.00;;;;;;;;;;6242026;22;20023;-94
2023/06/15 12:09:40;;;;;;;3.60;2.20;;;;;;;;;;6290424;22;20071;-94
2023/06/15 12:12:08;;;;;;;7.03;2.30;;;;;;;;;;6242022;22;20030;-95
2023/06/15 12:14:36;;;;;;;3.45;2.30;;;;;;;;;;6266133;22;20008;-94
2023/06/15 12:17:32;;;;;;;4.32;2.20;;;;;;;;;;6289988;22;20019;-95
2023/06/15 12:20:10;;;;;;;5.03;2.13;;;;;;;;;;6260702;22;20000;-94
2023/06/15 12:22:36;;;;;;;5.20;2.30;;;;;;;;;;6260840;22;19996;-94
2023/06/15 12:25:27;;;;;;;9.40;2.30;;;;;;;;;;6263255;22;20008;-94
2023/06/15 12:27:53;;;;;;;4.95;2.10;;;;;;;;;;6262615;22;20023;-94
2023/06/15 12:30:31;;;;;;;4.65;2.40;;;;;;;;;;6292711;22;20057;-95
2023/06/15 12:33:15;;;;;;;;;;;;;;;;;;;;;
2023/06/15 12:36:00;;;;;;;6.20;2.05;;;;;;;;;;6287919;22;20011;-95
2023/06/15 12:38:33;;;;;;;9.98;3.10;;;;;;;;;;6264727;22;20037;-94
2023/06/15 12:41:19;;;;;;;5.80;2.72;;;;;;;;;;6263009;22;20003;-94
2023/06/15 12:43:47;;;;;;;3.95;2.22;;;;;;;;;;6260495;22;20003;-94
2023/06/15 12:46:23;;;;;;;4.03;2.00;;;;;;;;;;6263638;22;20091;-95
2023/06/15 12:48:52;;;;;;;7.15;2.10;;;;;;;;;;6262700;22;20064;-94
2023/06/15 12:51:26;;;;;;;7.38;2.45;;;;;;;;;;6289926;22;20051;-95
2023/06/15 12:53:57;;;;;;;5.70;1.88;;;;;;;;;;6264185;22;19992;-95
2023/06/15 12:56:33;;;;;;;4.70;2.45;;;;;;;;;;6291842;22;20012;-94
2023/06/15 12:59:10;;;;;;;4.47;2.50;;;;;;;;;;6263156;22;19992;-94
2023/06/15 13:01:40;;;;;;;4.40;2.22;;;;;;;;;;6290296;22;20023;-94
2023/06/15 13:04:08;;;;;;;5.93;2.65;;;;;;;;;;6264019;22;20007;-94
2023/06/15 13:07:00;;;;;;;3.67;2.30;;;;;;;;;;6288443;22;20064;-94
2023/06/15 13:09:26;;;;;;;3.78;2.13;;;;;;;;;;6262464;22;20004;-95
2023/06/15 13:12:07;;;;;;;3.53;2.13;;;;;;;;;;6264517;22;20064;-94
2023/06/15 13:14:35;;;;;;;4.90;2.58;;;;;;;;;;6243909;22;19999;-94
2023/06/15 13:17:03;;;;;;;6.82;2.50;;;;;;;;;;6262757;22;20067;-95
2023/06/15 13:19:30;;;;;;;7.85;2.58;;;;;;;;;;6260065;22;20375;-94
2023/06/15 13:21:55;;;;;;;8.20;2.70;;;;;;;;;;6291216;22;20004;-94
2023/06/15 13:24:50;;;;;;;4.13;2.50;;;;;;;;;;6287085;22;20194;-94
2023/06/15 13:27:26;;;;;;;10.40;2.80;;;;;;;;;;6263617;22;20045;-96
2023/06/15 13:30:00;;;;;;;4.47;2.33;;;;;;;;;;6291158;22;19995;-95
2023/06/15 13:32:37;;;;;;;3.50;2.00;;;;;;;;;;6288790;22;20011;-94
2023/06/15 13:35:16;;;;;;;4.95;2.63;;;;;;;;;;6289140;22;20019;-95
2023/06/15 13:37:46;;;;;;;4.97;2.45;;;;;;;;;;6263697;22;19996;-94
2023/06/15 13:40:15;;;;;;;6.53;2.30;;;;;;;;;;6262829;22;20019;-94
2023/06/15 13:42:50;;;;;;;3.67;2.53;;;;;;;;;;6264291;22;19992;-94
2023/06/15 13:45:18;;;;;;;6.35;2.70;;;;;;;;;;6263376;22;19992;-94
2023/06/15 13:47:55;;;;;;;6.28;2.28;;;;;;;;;;6238434;22;20007;-94
2023/06/15 13:50:27;;;;;;;5.00;2.67;;;;;;;;;;6291683;22;20051;-95
2023/06/15 13:53:04;;;;;;;4.47;2.60;;;;;;;;;;6289922;22;20034;-95
2023/06/15 13:55:47;;;;;;;4.68;2.45;;;;;;;;;;6264531;22;19999;-94
2023/06/15 13:58:25;;;;;;;4.55;2.45;;;;;;;;;;6291960;22;20023;-94
2023/06/15 14:03:47;;;;;;;4.22;2.20;;;;;;;;;;6290188;22;19922;-93
2023/06/15 14:06:34;;;;;;;6.53;2.55;;;;;;;;;;6292373;22;20075;-95
2023/06/15 14:09:24;;;;;;;5.93;2.80;;;;;;;;;;6291432;22;19996;-94
2023/06/15 14:12:08;;;;;;;8.30;2.60;;;;;;;;;;6289708;22;20011;-94
2023/06/15 14:14:39;;;;;;;8.32;2.72;;;;;;;;;;6283386;22;20000;-94
2023/06/15 14:17:46;;;;;;;4.07;2.70;;;;;;;;;;6295925;22;19999;-94
2023/06/15 14:23:29;;;;;;;4.50;2.63;;;;;;;;;;6292785;22;20071;-94
2023/06/15 14:25:57;;;;;;;5.30;2.33;;;;;;;;;;6290575;22;19988;-94
2023/06/15 14:28:48;;;;;;;3.92;2.42;;;;;;;;;;6283730;22;20003;-94
2023/06/15 14:31:45;;;;;;;5.43;2.37;;;;;;;;;;6287173;22;20000;-95
2023/06/15 14:34:27;;;;;;;6.13;2.42;;;;;;;;;;6297772;22;20252;-94
2023/06/15 14:37:04;;;;;;;;;;;;;;;;;;;;;
2023/06/15 14:39:50;;;;;;;4.50;2.80;;;;;;;;;;6296320;22;20000;-94
2023/06/15 14:42:29;;;;;;;3.92;1.90;;;;;;;;;;6296604;22;20004;-92
2023/06/15 14:45:10;;;;;;;6.80;2.85;;;;;;;;;;6297348;22;19992;-95
2023/06/15 14:47:38;;;;;;;7.55;2.83;;;;;;;;;;6285911;22;19997;-94
2023/06/15 14:50:06;;;;;;;4.20;2.67;;;;;;;;;;6295332;22;19996;-94
2023/06/15 14:52:44;;;;;;;;;;;;;;;;;;;;;
2023/06/15 14:55:12;;;;;;;4.82;2.92;;;;;;;;;;6296288;22;20007;-95
2023/06/15 14:57:44;;;;;;;5.22;2.40;;;;;;;;;;6285780;22;19999;-96
2023/06/15 15:00:15;;;;;;;5.05;3.00;;;;;;;;;;6296593;22;20006;-94
2023/06/15 15:02:57;;;;;;;4.95;2.67;;;;;;;;;;6287771;22;20080;-95
2023/06/15 15:05:32;;;;;;;;;;;;;;;;;;;;;
2023/06/15 15:08:12;;;;;;;4.28;2.58;;;;;;;;;;6294398;22;20000;-94
2023/06/15 15:13:57;;;;;;;4.55;2.75;;;;;;;;;;6269972;22;20039;-95
2023/06/15 15:16:33;;;;;;;5.03;2.53;;;;;;;;;;6220813;23;20004;-94
2023/06/15 15:19:05;;;;;;;6.18;2.50;;;;;;;;;;6292304;22;20000;-95
2023/06/15 15:21:43;;;;;;;;;;;;;;;;;;;;;
2023/06/15 15:24:34;;;;;;;5.20;2.53;;;;;;;;;;6288424;22;20007;-94
2023/06/15 15:27:03;;;;;;;8.73;2.40;;;;;;;;;;6284695;22;20035;-95
2023/06/15 15:29:42;;;;;;;7.68;2.55;;;;;;;;;;6295579;22;19999;-95
2023/06/15 15:32:29;;;;;;;4.82;2.92;;;;;;;;;;6291806;22;19995;-95
2023/06/15 15:35:23;;;;;;;5.03;2.80;;;;;;;;;;6290004;22;20021;-94
2023/06/15 15:37:59;;;;;;;4.75;2.70;;;;;;;;;;6283917;22;19996;-94
2023/06/15 15:40:59;;;;;;;7.60;2.45;;;;;;;;;;6296384;22;20052;-95
2023/06/15 15:43:47;;;;;;;4.45;2.65;;;;;;;;;;6286252;22;20140;-96
2023/06/15 15:46:15;;;;;;;3.78;2.50;;;;;;;;;;6292712;22;20018;-94
2023/06/15 15:48:44;;;;;;;4.70;2.78;;;;;;;;;;6291879;22;20007;-95
2023/06/15 15:54:49;;;;;;;;;;;;;;;;;;;;;
2023/06/15 15:57:35;;;;;;;;;;;;;;;;;;;;;
2023/06/15 16:03:04;;;;;;;8.00;2.63;;;;;;;;;;6295417;22;19995;-95
2023/06/15 16:05:39;;;;;;;4.07;2.45;;;;;;;;;;6288219;22;20079;-95
2023/06/15 16:08:09;;;;;;;7.57;2.80;;;;;;;;;;6299801;22;20008;-94
2023/06/15 16:11:07;;;;;;;4.13;2.83;;;;;;;;;;6291131;22;20407;-94
2023/06/15 16:13:49;;;;;;;;;;;;;;;;;;;;;
2023/06/15 16:16:15;;;;;;;4.35;2.75;;;;;;;;;;6299601;22;20022;-94
2023/06/15 16:18:55;;;;;;;6.75;2.90;;;;;;;;;;6291529;22;19999;-94
2023/06/15 16:21:42;;;;;;;5.40;2.63;;;;;;;;;;6291695;22;20039;-95
2023/06/15 16:24:18;;;;;;;;;;;;;;;;;;;;;
2023/06/15 16:27:08;;;;;;;4.50;2.58;;;;;;;;;;6298034;22;19996;-94
2023/06/15 16:29:52;;;;;;;;;;;;;;;;;;;;;
2023/06/15 16:32:26;;;;;;;4.88;2.72;;;;;;;;;;6292541;22;20011;-96
2023/06/15 16:34:59;;;;;;;6.03;3.30;;;;;;;;;;6287484;22;20092;-94
2023/06/15 16:37:24;;;;;;;4.78;3.00;;;;;;;;;;6262468;22;20110;-95
2023/06/15 16:39:51;;;;;;;6.95;2.90;;;;;;;;;;6273110;22;20002;-94
2023/06/15 16:42:18;;;;;;;8.82;2.70;;;;;;;;;;6273602;22;20003;-93
2023/06/15 16:44:46;;;;;;;3.88;2.70;;;;;;;;;;6265408;22;19996;-93
2023/06/15 16:47:15;;;;;;;7.50;3.20;;;;;;;;;;6273395;22;19999;-94
2023/06/15 16:49:48;;;;;;;4.53;2.88;;;;;;;;;;6266127;22;20422;-94
2023/06/15 16:52:16;;;;;;;3.47;2.72;;;;;;;;;;6272959;22;20456;-93
2023/06/15 16:55:08;;;;;;;5.18;3.30;;;;;;;;;;6269819;22;20007;-95
2023/06/15 16:58:01;;;;;;;4.60;2.90;;;;;;;;;;6263024;22;20012;-94
2023/06/15 17:00:28;;;;;;;4.80;2.92;;;;;;;;;;6260469;22;20008;-94
2023/06/15 17:02:55;;;;;;;5.30;3.05;;;;;;;;;;6263449;22;20003;-94
2023/06/15 17:05:31;;;;;;;7.10;3.45;;;;;;;;;;6287837;22;20007;-94
2023/06/15 17:08:06;;;;;;;6.07;3.10;;;;;;;;;;6282263;22;20000;-94
2023/06/15 17:10:33;;;;;;;6.45;3.00;;;;;;;;;;6278031;22;20007;-95
2023/06/15 17:13:01;;;;;;;4.43;3.03;;;;;;;;;;6289981;22;19996;-95
2023/06/15 17:15:27;;;;;;;5.03;3.08;;;;;;;;;;6277011;22;20008;-94
2023/06/15 17:17:53;;;;;;;4.97;3.10;;;;;;;;;;6279022;22;20008;-93
2023/06/15 17:20:18;;;;;;;7.40;3.60;;;;;;;;;;6262304;22;20042;-93
2023/06/15 17:22:59;;;;;;;6.57;3.47;;;;;;;;;;6275741;22;20986;-94
2023/06/15 17:25:28;;;;;;;5.80;2.90;;;;;;;;;;6291181;22;20000;-94
2023/06/15 17:28:09;;;;;;;5.82;3.33;;;;;;;;;;6293128;22;20014;-93
2023/06/15 17:30:37;;;;;;;10.75;3.40;;;;;;;;;;6289009;22;19995;-95
2023/06/15 17:33:14;;;;;;;8.07;3.22;;;;;;;;;;6290500;22;20015;-94
2023/06/15 17:35:42;;;;;;;;;;;;;;;;;;6289708;22;20003;-94
2023/06/15 17:38:13;;;;;;;6.45;3.03;;;;;;;;;;6287710;22;19914;-94
2023/06/15 17:40:43;;;;;;;5.50;3.28;;;;;;;;;;6277899;22;20225;-94
2023/06/15 17:43:15;;;;;;;6.85;3.08;;;;;;;;;;6288999;22;19996;-94
2023/06/15 17:45:41;;;;;;;7.95;3.13;;;;;;;;;;6290134;22;19996;-94
2023/06/15 17:48:11;;;;;;;4.65;3.05;;;;;;;;;;6289794;22;20053;-94
2023/06/15 17:50:44;;;;;;;5.20;2.90;;;;;;;;;;6279777;22;19999;-94
2023/06/15 17:53:11;;;;;;;6.35;2.92;;;;;;;;;;6289960;22;20178;-94
2023/06/15 17:55:46;;;;;;;7.10;2.92;;;;;;;;;;6291548;22;20011;-96
2023/06/15 17:58:16;;;;;;;5.78;2.83;;;;;;;;;;6288704;22;20026;-95
2023/06/15 18:00:52;;;;;;;5.38;3.20;;;;;;;;;;6290963;22;20004;-94
2023/06/15 18:03:21;;;;;;;5.05;3.15;;;;;;;;;;6288232;22;20056;-95
2023/06/15 18:06:12;;;;;;;6.45;3.08;;;;;;;;;;6290811;22;19995;-95
2023/06/15 18:08:44;;;;;;;4.38;2.75;;;;;;;;;;6290419;22;20006;-94
2023/06/15 18:11:10;;;;;;;;;;;;;;;;;;6291063;22;19995;-94
2023/06/15 18:13:38;;;;;;;7.77;2.73;;;;;;;;;;6280535;22;19922;-94
2023/06/15 18:16:29;;;;;;;9.85;3.00;;;;;;;;;;6289189;22;20257;-94
2023/06/15 18:19:07;;;;;;;5.22;2.72;;;;;;;;;;6288987;22;20019;-95
2023/06/15 18:21:35;;;;;;;8.45;3.05;;;;;;;;;;6253776;22;20011;-94
2023/06/15 18:24:04;;;;;;;5.50;3.45;;;;;;;;;;6288334;22;19999;-94
2023/06/15 18:26:33;;;;;;;3.95;2.40;;;;;;;;;;6291503;22;19988;-93
2023/06/15 18:28:59;;;;;;;5.05;2.72;;;;;;;;;;6285531;22;20015;-94
2023/06/15 18:31:30;;;;;;;4.88;2.70;;;;;;;;;;6278948;22;20007;-95
2023/06/15 18:34:01;;;;;;;7.93;2.65;;;;;;;;;;6294263;22;20011;-94
2023/06/15 18:36:30;;;;;;;;;;;;;;;;;;6294804;22;20004;-95
2023/06/15 18:39:00;;;;;;;4.13;2.45;;;;;;;;;;6293073;22;19910;-94
2023/06/15 18:41:25;;;;;;;4.57;2.70;;;;;;;;;;6280124;22;20182;-94
2023/06/15 18:43:56;;;;;;;5.28;2.85;;;;;;;;;;6292269;22;19992;-93
2023/06/15 18:46:22;;;;;;;5.25;2.70;;;;;;;;;;6294603;22;20030;-94
2023/06/15 18:48:56;;;;;;;5.75;2.70;;;;;;;;;;6286700;22;20004;-94
2023/06/15 18:51:26;;;;;;;3.78;2.22;;;;;;;;;;6293021;22;20000;-94
2023/06/15 18:54:18;;;;;;;7.60;2.40;;;;;;;;;;6294096;22;20091;-93
2023/06/15 18:56:49;;;;;;;3.30;2.38;;;;;;;;;;6293305;22;19918;-94
2023/06/15 19:02:58;;;;;;;4.97;2.70;;;;;;;;;;6268738;22;20007;-96
2023/06/15 19:05:30;;;;;;;4.85;2.45;;;;;;;;;;6282099;22;20025;-95
2023/06/15 19:11:31;;;;;;;8.25;2.63;;;;;;;;;;6277104;22;19995;-95
2023/06/15 19:14:33;;;;;;;;;;;;;;;;;;;;;
2023/06/15 19:20:29;;;;;;;5.93;2.53;;;;;;;;;;6214578;22;20030;-95
2023/06/15 21:57:00;;;;;;;6.30;2.70;;;;;;;;;;6294522;22;20023;-95
2023/06/15 21:59:32;;;;;;;5.57;2.63;;;;;;;;;;6289256;22;20027;-95
2023/06/15 22:02:46;;;;;;;3.85;2.60;;;;;;;;;;6295769;22;19991;-96
2023/06/15 22:05:49;;;;;;;3.75;2.20;;;;;;;;;;6296705;22;19991;-95
2023/06/15 22:08:24;;;;;;;6.55;2.67;;;;;;;;;;6289212;22;20018;-95
2023/06/15 22:11:08;;;;;;;7.20;2.55;;;;;;;;;;6290853;22;20004;-95
2023/06/15 22:14:02;;;;;;;4.43;2.55;;;;;;;;;;6290446;22;20393;-95
2023/06/15 22:16:36;;;;;;;6.28;2.60;;;;;;;;;;6275762;22;20018;-96
2023/06/15 22:19:34;;;;;;;8.38;2.67;;;;;;;;;;6295615;22;19988;-96
2023/06/15 22:24:58;;;;;;;6.28;2.67;;;;;;;;;;6285396;22;20014;-94
2023/06/15 22:27:52;;;;;;;5.28;2.75;;;;;;;;;;6290990;22;20015;-96
2023/06/15 22:30:32;;;;;;;5.72;2.20;;;;;;;;;;6289834;22;20006;-95
2023/06/15 22:33:05;;;;;;;5.13;3.53;;;;;;;;;;6283302;22;20004;-95
2023/06/15 22:35:43;;;;;;;4.53;2.25;;;;;;;;;;6280221;22;20008;-95
2023/06/15 22:38:14;;;;;;;4.75;2.53;;;;;;;;;;6291344;22;20023;-95
2023/06/15 22:40:40;;;;;;;7.70;2.35;;;;;;;;;;6292105;22;20028;-95
2023/06/15 22:43:16;;;;;;;7.00;2.85;;;;;;;;;;6290386;22;20000;-95
2023/06/15 22:45:46;;;;;;;8.07;2.50;;;;;;;;;;6283042;22;20027;-96
2023/06/15 22:48:22;;;;;;;4.45;2.50;;;;;;;;;;6292363;22;20000;-95
2023/06/15 22:53:27;;;;;;;5.55;2.78;;;;;;;;;;6307321;22;20323;-94
2023/06/15 22:56:00;;;;;;;7.07;2.70;;;;;;;;;;6291581;22;20043;-94
2023/06/15 22:58:45;;;;;;;8.77;2.53;;;;;;;;;;6269108;22;20228;-94
2023/06/15 23:01:12;;;;;;;8.63;3.58;;;;;;;;;;6296233;22;19999;-95
2023/06/15 23:03:45;;;;;;;5.82;2.97;;;;;;;;;;6252096;22;20036;-94
2023/06/15 23:06:19;;;;;;;5.43;2.47;;;;;;;;;;6295004;22;20056;-95
2023/06/15 23:09:07;;;;;;;5.18;2.42;;;;;;;;;;6287980;22;20071;-94
2023/06/15 23:11:35;;;;;;;10.40;3.17;;;;;;;;;;6293778;22;20047;-94
2023/06/15 23:14:01;;;;;;;12.40;2.95;;;;;;;;;;6292219;22;20018;-94
2023/06/15 23:16:27;;;;;;;5.55;2.63;;;;;;;;;;6283351;22;20016;-96
2023/06/15 23:18:56;;;;;;;8.40;2.80;;;;;;;;;;6295437;22;20015;-94
2023/06/15 23:21:29;;;;;;;4.97;2.70;;;;;;;;;;6296088;22;19996;-94
2023/06/15 23:24:04;;;;;;;7.50;3.28;;;;;;;;;;6297350;22;20030;-94
2023/06/15 23:26:41;;;;;;;6.32;2.78;;;;;;;;;;6297235;22;20010;-94
2023/06/15 23:29:17;;;;;;;7.68;3.00;;;;;;;;;;6258995;22;20000;-96
2023/06/15 23:32:02;;;;;;;4.20;2.47;;;;;;;;;;6294294;22;20075;-95
2023/06/15 23:34:38;;;;;;;4.78;2.78;;;;;;;;;;6279309;22;19999;-94
2023/06/15 23:37:15;;;;;;;5.53;2.75;;;;;;;;;;6285755;22;20008;-93
2023/06/15 23:39:48;;;;;;;4.95;2.70;;;;;;;;;;6280186;22;19995;-94
2023/06/15 23:42:16;;;;;;;6.20;2.33;;;;;;;;;;6286529;22;19995;-94
2023/06/15 23:44:41;;;;;;;5.05;2.90;;;;;;;;;;6277933;22;19999;-94
2023/06/15 23:47:12;;;;;;;6.95;3.00;;;;;;;;;;6287494;22;20003;-94
2023/06/15 23:49:38;;;;;;;6.03;2.58;;;;;;;;;;6276493;22;20011;-96
2023/06/15 23:52:11;;;;;;;4.47;2.75;;;;;;;;;;6290163;22;20011;-93
2023/06/15 23:54:44;;;;;;;6.82;2.88;;;;;;;;;;6265318;22;20107;-92
